White Mountain, California
Current Conditions -  °F | °C
As of 5:56 AM on Thursday 30 Oct 2014 (Local Time) from KBIH Reporting Station
Clear Clear  
Wind Chill: 31°   Ceiling: Unl
Heat Index: 36°   Visibility: 10mi
Dew Point: 18°   Wind: 6mph
Humidity: 48%   Direction: 310°NW
Pressure: 30.15"   Gusts: NA
Location:  37.5°N, 118.18°W
Report Text: KBIH 301256Z AUTO 31005KT 10SM CLR 02/M08 A3015 RMK AO2 SLP185 T00221078 $
Loading
Personal Weather Stations






























Interactive Weather Map
Tropical Storm Tracking
New forecast layout! Learn more

10-Day Weather Forecast

Advertisements
Track Severe Weather on mobile